Nouasseur, Morocco
Current Conditions -  °F | °C
As of 6:00 AM on Wednesday 26 Nov 2014 (Local Time) from GMMN Reporting Station
Haze Haze  
Wind Chill: 54°   Ceiling: 1600
Heat Index: 54°   Visibility: 2.8mi
Dew Point: 54°   Wind: 8mph
Humidity: 100%   Direction: 200°SSW
Pressure: 30.06"   Gusts: NA
Location:  33.37°N, 7.58°W
Report Text: GMMN 260500Z 20007KT 4500 BR SCT006 BKN016 12/12 Q1018 NOSIG
Loading
Personal Weather Stations






























Interactive Weather Map New forecast layout! Learn more

10-Day Weather Forecast

Advertisements
Track Severe Weather on mobile